createdAt,value
2022-11-24T00:01:21.673Z,4.90
2022-11-24T00:04:05.922Z,4.90
2022-11-24T00:06:36.138Z,4.98
2022-11-24T00:09:05.347Z,5.00
2022-11-24T00:11:36.140Z,5.04
2022-11-24T00:14:05.875Z,5.08
2022-11-24T00:16:36.306Z,5.10
2022-11-24T00:19:13.613Z,5.12
2022-11-24T00:21:44.092Z,5.16
2022-11-24T00:24:12.146Z,5.10
2022-11-24T00:26:39.003Z,5.06
2022-11-24T00:29:07.958Z,5.10
2022-11-24T00:31:41.475Z,4.90
2022-11-24T00:34:13.455Z,4.90
2022-11-24T00:36:41.847Z,4.90
2022-11-24T00:39:13.855Z,4.90
2022-11-24T00:41:41.954Z,4.96
2022-11-24T00:44:09.121Z,5.00
2022-11-24T00:46:36.370Z,5.10
2022-11-24T00:49:03.825Z,5.00
2022-11-24T00:51:31.104Z,5.00
2022-11-24T00:54:00.007Z,5.02
2022-11-24T00:56:28.750Z,5.04
2022-11-24T00:58:56.724Z,5.02
2022-11-24T01:01:27.397Z,5.04
2022-11-24T01:03:55.458Z,5.10
2022-11-24T01:06:26.483Z,5.10
2022-11-24T01:08:54.547Z,5.14
2022-11-24T01:11:25.810Z,5.20
2022-11-24T01:13:59.172Z,5.30
2022-11-24T01:16:31.661Z,5.30
2022-11-24T01:18:58.709Z,5.30
2022-11-24T01:21:25.922Z,5.30
2022-11-24T01:23:52.910Z,5.34
2022-11-24T01:26:23.223Z,5.38
2022-11-24T01:28:56.105Z,5.40
2022-11-24T01:31:24.839Z,5.40
2022-11-24T01:33:52.563Z,5.40
2022-11-24T01:36:20.015Z,5.40
2022-11-24T01:38:46.954Z,5.42
2022-11-24T01:41:15.242Z,5.50
2022-11-24T01:43:45.397Z,5.50
2022-11-24T01:46:32.745Z,5.50
2022-11-24T01:49:08.532Z,5.60
2022-11-24T01:51:44.788Z,5.60
2022-11-24T01:54:22.596Z,5.60
2022-11-24T01:56:54.720Z,5.64
2022-11-24T01:59:22.411Z,5.64
2022-11-24T02:01:53.014Z,5.60
2022-11-24T02:04:28.938Z,5.64
2022-11-24T02:07:01.597Z,5.64
2022-11-24T02:09:39.771Z,5.70
2022-11-24T02:12:07.267Z,5.78
2022-11-24T02:14:38.275Z,5.80
2022-11-24T02:17:05.322Z,5.80
2022-11-24T02:19:41.023Z,5.80
2022-11-24T02:22:27.074Z,5.80
2022-11-24T02:25:13.498Z,5.80
2022-11-24T02:27:48.088Z,5.80
2022-11-24T02:30:18.628Z,5.80
2022-11-24T02:32:45.574Z,5.80
2022-11-24T02:35:12.463Z,5.80
2022-11-24T02:37:39.283Z,5.80
2022-11-24T02:40:07.520Z,5.80
2022-11-24T02:42:42.673Z,5.90
2022-11-24T02:45:12.200Z,5.90
2022-11-24T02:47:38.976Z,5.90
2022-11-24T02:50:06.571Z,5.90
2022-11-24T02:52:33.750Z,5.94
2022-11-24T02:55:00.523Z,6.00
2022-11-24T02:57:27.408Z,6.00
2022-11-24T02:59:54.250Z,6.00
2022-11-24T03:02:21.468Z,6.00
2022-11-24T03:04:48.666Z,6.00
2022-11-24T03:07:15.860Z,6.00
2022-11-24T03:09:42.852Z,6.00
2022-11-24T03:12:09.695Z,6.04
2022-11-24T03:14:36.931Z,6.10
2022-11-24T03:17:04.399Z,6.10
2022-11-24T03:19:31.265Z,6.10
2022-11-24T03:21:58.023Z,6.14
2022-11-24T03:24:24.823Z,6.20
2022-11-24T03:26:51.738Z,6.20
2022-11-24T03:29:18.509Z,6.20
2022-11-24T03:31:45.564Z,6.20
2022-11-24T03:34:12.403Z,6.20
2022-11-24T03:36:39.181Z,6.20
2022-11-24T03:39:06.175Z,6.18
2022-11-24T03:41:33.151Z,6.18
2022-11-24T03:43:59.898Z,6.20
2022-11-24T03:46:26.772Z,6.20
2022-11-24T03:48:53.633Z,6.20
2022-11-24T03:51:20.440Z,6.30
2022-11-24T03:53:47.194Z,6.30
2022-11-24T03:56:14.703Z,6.30
2022-11-24T03:58:41.537Z,6.30
2022-11-24T04:01:08.480Z,6.38
2022-11-24T04:03:35.326Z,6.38
2022-11-24T04:06:02.169Z,6.40
2022-11-24T04:08:29.121Z,6.40
2022-11-24T04:10:55.971Z,6.40
2022-11-24T04:13:25.689Z,6.40
2022-11-24T04:15:52.788Z,6.42
2022-11-24T04:18:20.914Z,6.50
2022-11-24T04:20:51.421Z,6.50
2022-11-24T04:23:18.973Z,6.50
2022-11-24T04:25:45.805Z,6.60
2022-11-24T04:28:12.906Z,6.60
2022-11-24T04:30:44.825Z,6.70
2022-11-24T04:33:13.055Z,6.70
2022-11-24T04:35:39.915Z,6.70
2022-11-24T04:38:06.788Z,6.80
2022-11-24T04:40:33.626Z,6.80
2022-11-24T04:43:00.491Z,6.80
2022-11-24T04:45:27.314Z,6.90
2022-11-24T04:47:54.156Z,6.90
2022-11-24T04:50:21.129Z,6.98
2022-11-24T04:52:47.967Z,7.00
2022-11-24T04:55:14.926Z,7.00
2022-11-24T04:57:41.754Z,7.00
2022-11-24T05:00:10.545Z,7.00
2022-11-24T05:02:37.561Z,7.06
2022-11-24T05:05:06.965Z,7.10
2022-11-24T05:07:34.883Z,7.10
2022-11-24T05:10:20.622Z,7.10
2022-11-24T05:12:59.603Z,7.12
2022-11-24T05:15:26.855Z,7.10
2022-11-24T05:17:54.345Z,7.10
2022-11-24T05:20:21.826Z,7.10
2022-11-24T05:22:49.366Z,7.20
2022-11-24T05:25:16.618Z,7.20
2022-11-24T05:27:43.874Z,7.20
2022-11-24T05:30:11.597Z,7.20
2022-11-24T05:32:38.338Z,7.20
2022-11-24T05:35:06.241Z,7.20
2022-11-24T05:37:32.982Z,7.20
2022-11-24T05:39:59.736Z,7.24
2022-11-24T05:42:46.513Z,7.22
2022-11-24T05:45:19.421Z,7.30
2022-11-24T05:47:47.469Z,7.30
2022-11-24T05:50:16.975Z,7.30
2022-11-24T05:52:44.037Z,7.30
2022-11-24T05:55:12.519Z,7.30
2022-11-24T05:57:39.462Z,7.30
2022-11-24T06:00:08.909Z,7.30
2022-11-24T06:02:44.420Z,7.30
2022-11-24T06:05:11.357Z,7.30
2022-11-24T06:07:38.223Z,7.36
2022-11-24T06:10:05.819Z,7.36
2022-11-24T06:12:33.212Z,7.30
2022-11-24T06:15:00.051Z,7.40
2022-11-24T06:17:26.889Z,7.40
2022-11-24T06:19:53.944Z,7.40
2022-11-24T06:22:20.823Z,7.40
2022-11-24T06:24:47.803Z,7.40
2022-11-24T06:27:14.676Z,7.40
2022-11-24T06:29:41.517Z,7.40
2022-11-24T06:32:08.886Z,7.40
2022-11-24T06:34:36.191Z,7.40
2022-11-24T06:37:03.478Z,7.40
2022-11-24T06:39:30.262Z,7.40
2022-11-24T06:41:57.369Z,7.40
2022-11-24T06:44:24.605Z,7.40
2022-11-24T06:46:51.489Z,7.42
2022-11-24T06:49:18.712Z,7.50
2022-11-24T06:51:45.548Z,7.50
2022-11-24T06:54:21.085Z,7.50
2022-11-24T06:56:48.105Z,7.60
2022-11-24T06:59:19.419Z,7.60
2022-11-24T07:01:47.361Z,7.60
2022-11-24T07:04:15.228Z,7.70
2022-11-24T07:06:43.020Z,7.70
2022-11-24T07:09:12.481Z,7.74
2022-11-24T07:11:40.917Z,7.80
2022-11-24T07:14:08.013Z,7.80
2022-11-24T07:16:36.123Z,7.80
2022-11-24T07:19:03.145Z,7.90
2022-11-24T07:21:32.956Z,7.96
2022-11-24T07:23:59.780Z,8.00
2022-11-24T07:26:27.266Z,8.06
2022-11-24T07:28:54.606Z,8.08
2022-11-24T07:31:26.398Z,8.16
2022-11-24T07:33:55.566Z,8.30
2022-11-24T07:36:23.097Z,8.30
2022-11-24T07:38:50.972Z,8.40
2022-11-24T07:41:20.299Z,8.40
2022-11-24T07:43:48.525Z,8.50
2022-11-24T07:46:22.413Z,8.66
2022-11-24T07:48:49.579Z,8.64
2022-11-24T07:51:16.797Z,8.70
2022-11-24T07:53:45.054Z,8.80
2022-11-24T07:56:12.648Z,8.90
2022-11-24T07:58:39.651Z,8.90
2022-11-24T08:01:17.085Z,8.90
2022-11-24T08:03:45.596Z,8.90
2022-11-24T08:06:38.161Z,8.90
2022-11-24T08:09:02.243Z,8.90
2022-11-24T08:11:31.679Z,8.96
2022-11-24T08:13:58.798Z,9.00
2022-11-24T08:16:25.716Z,9.00
2022-11-24T08:18:56.267Z,8.90
2022-11-24T08:21:24.191Z,8.90
2022-11-24T08:23:56.598Z,8.92
2022-11-24T08:26:25.552Z,9.00
2022-11-24T08:28:58.967Z,9.00
2022-11-24T08:31:33.685Z,8.98
2022-11-24T08:34:02.499Z,9.00
2022-11-24T08:36:29.769Z,9.00
2022-11-24T08:38:59.493Z,9.00
2022-11-24T08:41:28.226Z,9.00
2022-11-24T08:43:56.020Z,9.00
2022-11-24T08:46:24.103Z,9.06
2022-11-24T08:48:53.919Z,9.10
2022-11-24T08:51:25.111Z,9.10
2022-11-24T08:53:57.077Z,9.10
2022-11-24T08:56:26.202Z,9.10
2022-11-24T08:58:54.332Z,9.20
2022-11-24T09:01:22.446Z,9.30
2022-11-24T09:03:51.601Z,9.40
2022-11-24T09:06:26.738Z,9.50
2022-11-24T09:08:55.682Z,9.50
2022-11-24T09:11:24.362Z,9.50
2022-11-24T09:13:51.713Z,9.50
2022-11-24T09:16:23.047Z,9.50
2022-11-24T09:19:00.432Z,9.54
2022-11-24T09:21:28.860Z,9.54
2022-11-24T09:23:56.503Z,9.50
2022-11-24T09:26:25.786Z,9.50
2022-11-24T09:28:56.762Z,9.50
2022-11-24T09:31:27.701Z,9.50
2022-11-24T09:33:55.565Z,9.58
2022-11-24T09:36:23.230Z,9.60
2022-11-24T09:38:50.380Z,9.70
2022-11-24T09:41:54.678Z,9.60
2022-11-24T09:44:58.429Z,9.60
2022-11-24T09:47:58.607Z,9.60
2022-11-24T09:50:34.379Z,9.70
2022-11-24T09:53:21.069Z,9.74
2022-11-24T09:55:55.075Z,9.80
2022-11-24T09:58:25.005Z,9.80
2022-11-24T10:00:54.760Z,9.70
2022-11-24T10:03:31.679Z,9.70
2022-11-24T10:06:04.650Z,9.70
2022-11-24T10:09:08.984Z,9.72
2022-11-24T10:11:46.756Z,9.80
2022-11-24T10:14:41.985Z,9.70
2022-11-24T10:18:16.711Z,9.80
2022-11-24T10:21:14.978Z,9.94
2022-11-24T10:24:06.019Z,10.10
2022-11-24T10:26:38.466Z,10.24
2022-11-24T10:29:47.640Z,10.40
2022-11-24T10:32:20.654Z,10.60
2022-11-24T10:34:52.262Z,10.70
2022-11-24T10:37:40.695Z,10.80
2022-11-24T10:40:49.096Z,10.86
2022-11-24T10:43:13.108Z,10.90
2022-11-24T10:45:41.342Z,11.00
2022-11-24T10:48:25.469Z,11.04
2022-11-24T10:51:24.726Z,11.20
2022-11-24T10:54:10.208Z,11.34
2022-11-24T10:56:46.404Z,11.40
2022-11-24T10:59:40.359Z,11.30
2022-11-24T11:02:34.136Z,11.26
2022-11-24T11:05:29.921Z,11.30
2022-11-24T11:08:22.383Z,11.40
2022-11-24T11:11:22.457Z,11.48
2022-11-24T11:14:04.401Z,11.50
2022-11-24T11:16:52.411Z,11.44
2022-11-24T11:19:52.356Z,11.40
2022-11-24T11:22:33.255Z,11.40
2022-11-24T11:25:06.168Z,11.30
2022-11-24T11:27:33.379Z,11.30
2022-11-24T11:36:16.514Z,11.30
2022-11-24T11:38:45.122Z,11.34
2022-11-24T11:41:24.234Z,11.32
2022-11-24T11:44:11.051Z,11.38
2022-11-24T11:46:37.857Z,11.40
2022-11-24T11:49:05.352Z,11.40
2022-11-24T11:52:21.533Z,11.40
2022-11-24T11:55:35.598Z,11.50
2022-11-24T11:58:17.697Z,11.54
2022-11-24T12:00:58.497Z,11.60
2022-11-24T12:03:34.264Z,11.70
2022-11-24T12:06:25.123Z,11.70
2022-11-24T12:09:32.414Z,11.70
2022-11-24T12:12:46.522Z,11.70
2022-11-24T12:15:50.211Z,11.70
2022-11-24T12:19:17.389Z,11.70
2022-11-24T12:21:56.148Z,11.70
2022-11-24T12:24:55.743Z,11.70
2022-11-24T12:27:39.184Z,11.70
2022-11-24T12:30:14.471Z,11.80
2022-11-24T12:32:44.140Z,11.94
2022-11-24T12:35:46.518Z,12.00
2022-11-24T12:38:27.896Z,11.90
2022-11-24T12:41:39.773Z,11.70
2022-11-24T12:44:00.976Z,11.50
2022-11-24T12:47:05.019Z,11.40
2022-11-24T12:50:02.991Z,11.30
2022-11-24T12:52:40.879Z,11.10
2022-11-24T12:55:15.623Z,11.06
2022-11-24T12:58:30.284Z,11.00
2022-11-24T13:01:09.317Z,11.00
2022-11-24T13:03:54.907Z,11.00
2022-11-24T13:06:34.026Z,11.10
2022-11-24T13:09:12.429Z,11.30
2022-11-24T13:11:49.329Z,11.22
2022-11-24T13:14:22.230Z,11.10
2022-11-24T13:17:28.197Z,11.10
2022-11-24T13:19:46.563Z,11.00
2022-11-24T13:22:28.858Z,11.06
2022-11-24T13:25:20.529Z,11.00
2022-11-24T13:27:53.074Z,11.00
2022-11-24T13:30:35.130Z,10.96
2022-11-24T13:33:16.866Z,11.00
2022-11-24T13:36:02.516Z,11.00
2022-11-24T13:38:54.549Z,11.00
2022-11-24T13:41:33.606Z,11.02
2022-11-24T13:44:15.847Z,11.10
2022-11-24T13:47:26.409Z,11.10
2022-11-24T13:49:53.252Z,11.10
2022-11-24T13:52:40.539Z,11.10
2022-11-24T13:55:13.775Z,11.10
2022-11-24T13:57:54.330Z,11.10
2022-11-24T14:00:36.635Z,11.10
2022-11-24T14:03:26.441Z,11.02
2022-11-24T14:05:54.714Z,11.00
2022-11-24T14:08:29.202Z,10.94
2022-11-24T14:10:59.112Z,10.90
2022-11-24T14:13:28.486Z,10.90
2022-11-24T14:16:10.498Z,10.80
2022-11-24T14:18:40.870Z,10.80
2022-11-24T14:21:19.991Z,10.80
2022-11-24T14:24:01.300Z,10.70
2022-11-24T14:26:40.005Z,10.70
2022-11-24T14:29:21.700Z,10.66
2022-11-24T14:32:01.424Z,10.60
2022-11-24T14:34:35.743Z,10.50
2022-11-24T14:37:03.088Z,10.32
2022-11-24T14:39:30.345Z,10.20
2022-11-24T14:42:05.006Z,10.20
2022-11-24T14:44:58.806Z,10.10
2022-11-24T14:47:32.241Z,10.10
2022-11-24T14:50:18.471Z,10.10
2022-11-24T14:52:57.894Z,10.10
2022-11-24T14:55:31.774Z,10.10
2022-11-24T14:58:00.122Z,10.10
2022-11-24T15:00:33.490Z,10.10
2022-11-24T15:03:18.724Z,10.10
2022-11-24T15:06:01.132Z,10.00
2022-11-24T15:08:38.586Z,9.82
2022-11-24T15:11:07.857Z,9.70
2022-11-24T15:13:38.667Z,9.60
2022-11-24T15:16:15.955Z,9.60
2022-11-24T15:18:49.651Z,9.50
2022-11-24T15:21:19.412Z,9.42
2022-11-24T15:24:15.130Z,9.40
2022-11-24T15:26:44.401Z,9.30
2022-11-24T15:29:12.542Z,9.30
2022-11-24T15:31:41.532Z,9.30
2022-11-24T15:34:14.216Z,9.20
2022-11-24T15:36:41.164Z,9.20
2022-11-24T15:39:08.109Z,9.20
2022-11-24T15:41:35.158Z,9.20
2022-11-24T15:44:02.203Z,9.18
2022-11-24T15:46:38.296Z,9.18
2022-11-24T15:49:07.157Z,9.10
2022-11-24T15:51:44.644Z,9.10
2022-11-24T15:54:17.755Z,9.10
2022-11-24T15:56:44.635Z,9.10
2022-11-24T15:59:20.537Z,9.10
2022-11-24T16:01:50.006Z,9.10
2022-11-24T16:04:17.193Z,9.10
2022-11-24T16:06:43.941Z,9.10
2022-11-24T16:09:17.263Z,9.00
2022-11-24T16:11:44.134Z,9.00
2022-11-24T16:14:10.984Z,9.00
2022-11-24T16:16:38.236Z,9.00
2022-11-24T16:19:05.195Z,9.02
2022-11-24T16:21:32.046Z,9.08
2022-11-24T16:23:58.829Z,9.04
2022-11-24T16:26:25.610Z,9.00
2022-11-24T16:28:52.566Z,9.00
2022-11-24T16:31:20.035Z,8.90
2022-11-24T16:33:46.975Z,8.90
2022-11-24T16:36:14.157Z,8.80
2022-11-24T16:38:41.581Z,8.70
2022-11-24T16:41:10.410Z,8.60
2022-11-24T16:43:38.131Z,8.60
2022-11-24T16:46:22.956Z,8.52
2022-11-24T16:48:54.950Z,8.50
2022-11-24T16:51:24.566Z,8.50
2022-11-24T16:54:00.019Z,8.48
2022-11-24T16:56:29.332Z,8.40
2022-11-24T16:58:56.560Z,8.40
2022-11-24T17:01:23.814Z,8.40
2022-11-24T17:03:50.813Z,8.50
2022-11-24T17:06:18.906Z,8.50
2022-11-24T17:08:46.595Z,8.50
2022-11-24T17:11:20.979Z,8.60
2022-11-24T17:13:49.407Z,8.50
2022-11-24T17:16:23.735Z,8.50
2022-11-24T17:18:51.384Z,8.50
2022-11-24T17:21:28.167Z,8.58
2022-11-24T17:24:05.690Z,8.60
2022-11-24T17:26:34.218Z,8.60
2022-11-24T17:29:01.430Z,8.60
2022-11-24T17:31:32.648Z,8.60
2022-11-24T17:34:01.616Z,8.70
2022-11-24T17:36:32.822Z,8.70
2022-11-24T17:39:01.346Z,8.70
2022-11-24T17:41:28.153Z,8.70
2022-11-24T17:43:56.756Z,8.68
2022-11-24T17:46:26.247Z,8.70
2022-11-24T17:48:53.406Z,8.70
2022-11-24T17:51:24.109Z,8.70
2022-11-24T17:53:53.597Z,8.70
2022-11-24T17:56:29.514Z,8.70
2022-11-24T17:58:59.911Z,8.78
2022-11-24T18:01:31.675Z,8.80
2022-11-24T18:03:59.247Z,8.80
2022-11-24T18:06:28.637Z,8.80
2022-11-24T18:08:58.733Z,8.80
2022-11-24T18:11:31.702Z,8.80
2022-11-24T18:14:03.640Z,8.80
2022-11-24T18:16:34.967Z,8.80
2022-11-24T18:19:09.783Z,8.80
2022-11-24T18:21:40.092Z,8.88
2022-11-24T18:24:09.161Z,8.86
2022-11-24T18:26:36.191Z,8.80
2022-11-24T18:29:03.717Z,8.80
2022-11-24T18:31:31.352Z,8.76
2022-11-24T18:33:59.902Z,8.70
2022-11-24T18:36:30.595Z,8.60
2022-11-24T18:39:05.046Z,8.50
2022-11-24T18:41:32.981Z,8.50
2022-11-24T18:44:08.012Z,8.40
2022-11-24T18:46:36.600Z,8.30
2022-11-24T18:49:04.261Z,8.30
2022-11-24T18:51:31.117Z,8.24
2022-11-24T18:53:58.372Z,8.20
2022-11-24T18:56:26.431Z,8.20
2022-11-24T18:58:55.653Z,8.18
2022-11-24T19:01:26.302Z,8.10
2022-11-24T19:03:57.180Z,8.10
2022-11-24T19:06:34.047Z,8.10
2022-11-24T19:09:09.032Z,8.10
2022-11-24T19:11:39.577Z,8.00
2022-11-24T19:14:11.537Z,8.00
2022-11-24T19:16:39.584Z,8.00
2022-11-24T19:19:08.134Z,8.00
2022-11-24T19:21:38.559Z,7.98
2022-11-24T19:24:07.506Z,7.90
2022-11-24T19:26:37.848Z,7.90
2022-11-24T19:29:06.582Z,7.90
2022-11-24T19:31:35.179Z,7.90
2022-11-24T19:34:03.587Z,7.90
2022-11-24T19:36:31.197Z,7.86
2022-11-24T19:38:59.735Z,7.80
2022-11-24T19:41:29.674Z,7.80
2022-11-24T19:43:58.058Z,7.80
2022-11-24T19:46:27.964Z,7.70
2022-11-24T19:48:58.293Z,7.70
2022-11-24T19:51:32.846Z,7.70
2022-11-24T19:54:00.908Z,7.70
2022-11-24T19:56:29.481Z,7.70
2022-11-24T19:58:56.924Z,7.70
2022-11-24T20:01:26.944Z,7.68
2022-11-24T20:04:12.947Z,7.70
2022-11-24T20:06:43.576Z,7.70
2022-11-24T20:09:14.159Z,7.78
2022-11-24T20:11:41.357Z,7.80
2022-11-24T20:14:13.632Z,7.82
2022-11-24T20:16:41.056Z,7.90
2022-11-24T20:19:13.092Z,7.96
2022-11-24T20:21:42.741Z,8.02
2022-11-24T20:24:21.065Z,8.10
2022-11-24T20:26:56.376Z,8.18
2022-11-24T20:29:23.251Z,8.20
2022-11-24T20:31:54.448Z,8.26
2022-11-24T20:34:23.368Z,8.30
2022-11-24T20:36:52.789Z,8.30
2022-11-24T20:39:27.846Z,8.30
2022-11-24T20:41:56.114Z,8.30
2022-11-24T20:44:26.544Z,8.30
2022-11-24T20:46:56.942Z,8.20
2022-11-24T20:49:24.305Z,8.20
2022-11-24T20:51:54.605Z,8.12
2022-11-24T20:54:22.142Z,8.10
2022-11-24T20:56:49.442Z,8.10
2022-11-24T20:59:21.702Z,8.00
2022-11-24T21:01:50.808Z,8.00
2022-11-24T21:04:23.105Z,7.90
2022-11-24T21:06:50.632Z,7.90
2022-11-24T21:09:17.807Z,7.88
2022-11-24T21:11:45.520Z,7.90
2022-11-24T21:14:13.125Z,7.90
2022-11-24T21:16:42.271Z,7.90
2022-11-24T21:19:17.523Z,7.90
2022-11-24T21:21:44.896Z,8.00
2022-11-24T21:24:15.567Z,8.00
2022-11-24T21:26:47.548Z,8.00
2022-11-24T21:29:18.901Z,8.04
2022-11-24T21:31:45.766Z,8.10
2022-11-24T21:34:18.458Z,8.10
2022-11-24T21:36:45.513Z,8.10
2022-11-24T21:39:14.937Z,8.14
2022-11-24T21:41:42.778Z,8.18
2022-11-24T21:44:12.892Z,8.10
2022-11-24T21:46:45.030Z,8.10
2022-11-24T21:49:16.288Z,8.10
2022-11-24T21:51:43.015Z,8.10
2022-11-24T21:54:09.890Z,8.00
2022-11-24T21:56:36.641Z,7.90
2022-11-24T21:59:03.399Z,7.90
2022-11-24T22:01:30.353Z,7.80
2022-11-24T22:03:57.355Z,7.80
2022-11-24T22:06:24.569Z,7.78
2022-11-24T22:08:51.373Z,7.80
2022-11-24T22:11:24.185Z,7.82
2022-11-24T22:13:52.142Z,7.90
2022-11-24T22:16:24.569Z,7.90
2022-11-24T22:18:52.125Z,7.80
2022-11-24T22:21:33.566Z,7.80
2022-11-24T22:24:01.265Z,7.70
2022-11-24T22:26:30.085Z,7.60
2022-11-24T22:28:58.642Z,7.60
2022-11-24T22:31:32.259Z,7.60
2022-11-24T22:34:00.946Z,7.62
2022-11-24T22:36:30.369Z,7.70
2022-11-24T22:39:04.370Z,7.70
2022-11-24T22:41:35.702Z,7.70
2022-11-24T22:44:03.360Z,7.76
2022-11-24T22:46:32.149Z,7.80
2022-11-24T22:49:01.035Z,7.80
2022-11-24T22:51:34.622Z,7.80
2022-11-24T22:54:04.367Z,7.80
2022-11-24T22:56:32.935Z,7.80
2022-11-24T22:59:01.854Z,7.84
2022-11-24T23:01:31.547Z,7.86
2022-11-24T23:03:58.466Z,7.80
2022-11-24T23:06:29.299Z,7.80
2022-11-24T23:08:58.501Z,7.80
2022-11-24T23:11:38.412Z,7.80
2022-11-24T23:14:14.473Z,7.70
2022-11-24T23:16:41.718Z,7.70
2022-11-24T23:19:09.204Z,7.70
2022-11-24T23:21:38.739Z,7.60
2022-11-24T23:24:07.518Z,7.60
2022-11-24T23:26:39.348Z,7.50
2022-11-24T23:29:06.926Z,7.40
2022-11-24T23:31:34.454Z,7.40
2022-11-24T23:34:03.812Z,7.30
2022-11-24T23:36:32.356Z,7.20
2022-11-24T23:39:08.937Z,7.10
2022-11-24T23:41:35.920Z,7.02
2022-11-24T23:44:03.026Z,7.00
2022-11-24T23:46:29.988Z,6.90
2022-11-24T23:48:57.564Z,6.86
2022-11-24T23:51:27.932Z,6.80
2022-11-24T23:53:55.414Z,6.72
2022-11-24T23:56:28.914Z,6.70
2022-11-24T23:58:55.713Z,6.64
